createdAt,value
2018-09-19T00:00:03.845Z,67.93
2018-09-19T00:02:33.050Z,67.83
2018-09-19T00:05:01.934Z,67.94
2018-09-19T00:07:30.922Z,67.88
2018-09-19T00:09:59.920Z,67.64
2018-09-19T00:12:30.824Z,68.08
2018-09-19T00:15:00.042Z,67.44
2018-09-19T00:17:29.166Z,67.76
2018-09-19T00:19:58.509Z,68.11
2018-09-19T00:22:27.297Z,68.31
2018-09-19T00:24:56.827Z,68.21
2018-09-19T00:27:31.703Z,68.33
2018-09-19T00:30:01.479Z,67.91
2018-09-19T00:32:30.556Z,67.68
2018-09-19T00:34:59.569Z,67.68
2018-09-19T00:37:28.367Z,67.27
2018-09-19T00:39:57.327Z,66.91
2018-09-19T00:42:26.257Z,66.56
2018-09-19T00:44:55.185Z,66.44
2018-09-19T00:47:24.063Z,66.40
2018-09-19T00:49:53.034Z,66.41
2018-09-19T00:52:22.199Z,66.69
2018-09-19T00:54:51.099Z,66.74
2018-09-19T00:57:20.075Z,67.10
2018-09-19T00:59:49.160Z,67.82
2018-09-19T01:02:18.102Z,67.30
2018-09-19T01:04:46.839Z,67.59
2018-09-19T01:07:15.834Z,67.36
2018-09-19T01:09:44.743Z,67.72
2018-09-19T01:12:13.510Z,67.76
2018-09-19T01:14:44.401Z,68.02
2018-09-19T01:17:13.278Z,68.29
2018-09-19T01:19:42.248Z,68.07
2018-09-19T01:22:11.434Z,68.68
2018-09-19T01:24:40.393Z,67.60
2018-09-19T01:27:09.270Z,67.99
2018-09-19T01:29:38.387Z,68.21
2018-09-19T01:32:07.764Z,68.04
2018-09-19T01:34:36.638Z,66.50
2018-09-19T01:37:05.955Z,66.73
2018-09-19T01:39:34.863Z,67.44
2018-09-19T01:42:03.665Z,67.34
2018-09-19T01:44:32.678Z,66.81
2018-09-19T01:47:01.760Z,66.77
2018-09-19T01:49:30.687Z,66.50
2018-09-19T01:51:59.790Z,66.53
2018-09-19T01:54:29.004Z,66.53
2018-09-19T01:56:57.808Z,66.63
2018-09-19T01:59:26.668Z,66.35
2018-09-19T02:01:55.597Z,66.59
2018-09-19T02:04:24.568Z,66.17
2018-09-19T02:06:53.437Z,65.14
2018-09-19T02:09:22.383Z,64.94
2018-09-19T02:11:51.339Z,65.19
2018-09-19T02:14:20.340Z,64.55
2018-09-19T02:16:49.313Z,64.97
2018-09-19T02:19:18.470Z,64.60
2018-09-19T02:21:47.248Z,63.46
2018-09-19T02:24:16.174Z,63.75
2018-09-19T02:26:44.996Z,64.53
2018-09-19T02:29:13.966Z,64.38
2018-09-19T02:31:42.949Z,63.80
2018-09-19T02:34:11.970Z,64.25
2018-09-19T02:36:40.880Z,63.99
2018-09-19T02:39:10.778Z,63.91
2018-09-19T02:41:39.856Z,63.76
2018-09-19T02:44:08.724Z,65.28
2018-09-19T02:46:37.658Z,68.42
2018-09-19T02:49:06.586Z,69.23
2018-09-19T02:51:35.517Z,69.71
2018-09-19T02:54:04.481Z,70.58
2018-09-19T02:56:33.366Z,69.84
2018-09-19T02:59:02.279Z,69.33
2018-09-19T03:01:31.101Z,69.74
2018-09-19T03:03:59.942Z,69.69
2018-09-19T03:06:29.214Z,71.17
2018-09-19T03:08:58.138Z,70.77
2018-09-19T03:11:27.348Z,70.14
2018-09-19T03:13:56.711Z,70.30
2018-09-19T03:16:25.577Z,70.61
2018-09-19T03:18:54.368Z,71.05
2018-09-19T03:21:23.243Z,69.63
2018-09-19T03:23:52.171Z,70.23
2018-09-19T03:26:20.982Z,69.00
2018-09-19T03:28:49.858Z,68.35
2018-09-19T03:31:18.796Z,68.61
2018-09-19T03:33:47.531Z,68.01
2018-09-19T03:36:16.567Z,67.43
2018-09-19T03:38:45.623Z,69.06
2018-09-19T03:41:14.549Z,70.21
2018-09-19T03:43:43.425Z,70.79
2018-09-19T03:46:12.494Z,71.74
2018-09-19T03:48:41.289Z,71.15
2018-09-19T03:51:10.218Z,74.59
2018-09-19T03:53:39.067Z,74.80
2018-09-19T03:56:08.258Z,76.78
2018-09-19T03:58:37.386Z,76.75
2018-09-19T04:01:06.574Z,75.96
2018-09-19T04:03:35.373Z,77.02
2018-09-19T04:06:04.370Z,76.37
2018-09-19T04:08:33.238Z,78.06
2018-09-19T04:11:02.145Z,75.86
2018-09-19T04:13:31.049Z,77.94
2018-09-19T04:15:59.899Z,78.29
2018-09-19T04:18:28.691Z,79.72
2018-09-19T04:20:57.845Z,78.97
2018-09-19T04:23:26.720Z,80.53
2018-09-19T04:25:55.485Z,81.55
2018-09-19T04:28:24.693Z,81.77
2018-09-19T04:30:53.559Z,81.42
2018-09-19T04:33:22.565Z,81.10
2018-09-19T04:35:51.474Z,82.30
2018-09-19T04:38:20.777Z,83.54
2018-09-19T04:40:49.849Z,83.40
2018-09-19T04:43:18.907Z,82.52
2018-09-19T04:45:47.876Z,82.75
2018-09-19T04:48:16.964Z,80.34
2018-09-19T04:50:45.884Z,81.55
2018-09-19T04:53:14.743Z,80.58
2018-09-19T04:55:43.566Z,80.44
2018-09-19T04:58:12.578Z,80.75
2018-09-19T05:00:41.519Z,81.83
2018-09-19T05:03:10.483Z,81.45
2018-09-19T05:05:39.624Z,81.07
2018-09-19T05:08:09.170Z,81.35
2018-09-19T05:10:38.474Z,80.52
2018-09-19T05:13:07.620Z,81.27
2018-09-19T05:15:36.375Z,80.37
2018-09-19T05:18:05.269Z,80.62
2018-09-19T05:20:34.187Z,81.21
2018-09-19T05:23:02.942Z,81.51
2018-09-19T05:25:32.250Z,79.18
2018-09-19T05:28:01.181Z,79.71
2018-09-19T05:30:30.129Z,80.92
2018-09-19T05:32:58.889Z,81.38
2018-09-19T05:35:34.331Z,80.63
2018-09-19T05:38:03.139Z,80.52
2018-09-19T05:40:31.986Z,80.07
2018-09-19T05:43:01.054Z,81.08
2018-09-19T05:45:29.935Z,81.06
2018-09-19T05:47:58.718Z,80.53
2018-09-19T05:50:27.696Z,80.79
2018-09-19T05:52:56.542Z,80.26
2018-09-19T05:55:25.335Z,80.22
2018-09-19T05:57:54.172Z,80.15
2018-09-19T06:00:23.111Z,80.71
2018-09-19T06:02:52.123Z,79.79
2018-09-19T06:05:21.351Z,79.52
2018-09-19T06:07:50.325Z,79.53
2018-09-19T06:10:19.406Z,78.88
2018-09-19T06:12:48.609Z,79.15
2018-09-19T06:15:17.444Z,78.87
2018-09-19T06:17:46.452Z,79.25
2018-09-19T06:20:15.333Z,78.70
2018-09-19T06:22:44.132Z,77.74
2018-09-19T06:25:13.004Z,77.32
2018-09-19T06:27:42.136Z,77.08
2018-09-19T06:30:11.107Z,75.32
2018-09-19T06:32:40.176Z,76.07
2018-09-19T06:35:09.216Z,76.27
2018-09-19T06:37:38.493Z,77.07
2018-09-19T06:40:07.406Z,76.42
2018-09-19T06:42:36.424Z,75.76
2018-09-19T06:45:05.426Z,76.07
2018-09-19T06:47:34.264Z,75.35
2018-09-19T06:50:03.500Z,75.64
2018-09-19T06:52:32.457Z,75.39
2018-09-19T06:55:01.158Z,75.54
2018-09-19T06:57:30.367Z,76.30
2018-09-19T06:59:59.256Z,75.92
2018-09-19T07:02:28.126Z,75.64
2018-09-19T07:04:57.339Z,75.86
2018-09-19T07:07:26.544Z,75.54
2018-09-19T07:09:55.432Z,75.20
2018-09-19T07:12:24.415Z,75.16
2018-09-19T07:14:53.304Z,74.60
2018-09-19T07:17:22.259Z,74.75
2018-09-19T07:19:51.409Z,74.05
2018-09-19T07:22:20.410Z,73.77
2018-09-19T07:24:49.327Z,73.07
2018-09-19T07:27:18.327Z,73.15
2018-09-19T07:29:47.106Z,72.51
2018-09-19T07:32:16.125Z,71.85
2018-09-19T07:34:45.171Z,68.95
2018-09-19T07:37:13.943Z,70.12
2018-09-19T07:39:42.817Z,69.14
2018-09-19T07:42:11.762Z,68.74
2018-09-19T07:44:40.678Z,69.11
2018-09-19T07:47:09.729Z,69.50
2018-09-19T07:49:38.701Z,69.92
2018-09-19T07:52:07.701Z,68.93
2018-09-19T07:54:36.662Z,69.10
2018-09-19T07:57:05.641Z,69.59
2018-09-19T07:59:34.401Z,66.61
2018-09-19T08:02:03.333Z,64.85
2018-09-19T08:04:32.389Z,67.74
2018-09-19T08:07:01.262Z,68.25
2018-09-19T08:09:30.148Z,66.66
2018-09-19T08:11:59.466Z,67.98
2018-09-19T08:14:28.382Z,64.63
2018-09-19T08:16:57.414Z,63.99
2018-09-19T08:19:26.271Z,62.53
2018-09-19T08:21:55.066Z,60.25
2018-09-19T08:24:24.150Z,61.44
2018-09-19T08:26:52.922Z,63.68
2018-09-19T08:29:21.914Z,63.60
2018-09-19T08:31:50.782Z,61.10
2018-09-19T08:34:19.728Z,61.52
2018-09-19T08:36:48.571Z,61.47
2018-09-19T08:39:17.478Z,62.10
2018-09-19T08:41:46.194Z,61.91
2018-09-19T08:44:15.048Z,61.54
2018-09-19T08:46:43.858Z,60.41
2018-09-19T08:49:12.609Z,61.53
2018-09-19T08:51:41.644Z,63.46
2018-09-19T08:54:10.470Z,62.53
2018-09-19T08:56:39.374Z,60.04
2018-09-19T08:59:08.512Z,60.55
2018-09-19T09:01:37.549Z,61.76
2018-09-19T09:04:06.341Z,60.32
2018-09-19T09:06:35.155Z,60.94
2018-09-19T09:09:04.716Z,61.99
2018-09-19T09:11:33.572Z,61.39
2018-09-19T09:14:02.579Z,61.21
2018-09-19T09:16:32.290Z,60.44
2018-09-19T09:19:01.309Z,59.32
2018-09-19T09:21:30.259Z,60.55
2018-09-19T09:23:59.369Z,60.22
2018-09-19T09:26:28.100Z,60.99
2018-09-19T09:28:57.362Z,60.94
2018-09-19T09:31:26.281Z,61.56
2018-09-19T09:33:55.119Z,63.34
2018-09-19T09:36:24.150Z,63.20
2018-09-19T09:38:52.947Z,63.75
2018-09-19T09:41:22.025Z,63.77
2018-09-19T09:43:51.105Z,63.65
2018-09-19T09:46:23.025Z,63.81
2018-09-19T09:48:51.976Z,63.90
2018-09-19T09:51:21.153Z,64.73
2018-09-19T09:53:50.172Z,65.08
2018-09-19T09:56:18.946Z,64.63
2018-09-19T09:58:48.675Z,64.81
2018-09-19T10:01:17.517Z,65.32
2018-09-19T10:03:46.480Z,66.90
2018-09-19T10:06:15.324Z,68.70
2018-09-19T10:08:44.198Z,69.04
2018-09-19T10:11:13.068Z,68.72
2018-09-19T10:13:42.191Z,69.53
2018-09-19T10:16:11.203Z,70.15
2018-09-19T10:18:40.316Z,70.04
2018-09-19T10:21:09.411Z,68.51
2018-09-19T10:23:38.270Z,68.66
2018-09-19T10:26:07.300Z,69.84
2018-09-19T10:28:36.164Z,69.14
2018-09-19T10:31:05.027Z,69.44
2018-09-19T10:33:33.747Z,69.13
2018-09-19T10:36:02.546Z,69.35
2018-09-19T10:38:31.382Z,70.71
2018-09-19T10:41:00.096Z,70.77
2018-09-19T10:43:28.869Z,71.24
2018-09-19T10:45:57.859Z,67.87
2018-09-19T10:48:26.743Z,69.93
2018-09-19T10:50:55.676Z,70.27
2018-09-19T10:53:24.709Z,66.24
2018-09-19T10:55:53.682Z,68.41
2018-09-19T10:58:23.066Z,68.75
2018-09-19T11:00:52.290Z,69.91
2018-09-19T11:03:21.165Z,69.20
2018-09-19T11:05:50.176Z,68.26
2018-09-19T11:08:19.418Z,66.64
2018-09-19T11:10:48.239Z,68.21
2018-09-19T11:13:17.295Z,67.95
2018-09-19T11:15:46.023Z,67.99
2018-09-19T11:18:14.947Z,67.97
2018-09-19T11:20:43.732Z,64.75
2018-09-19T11:23:12.542Z,65.03
2018-09-19T11:25:41.503Z,64.55
2018-09-19T11:28:10.375Z,63.54
2018-09-19T11:30:39.390Z,63.52
2018-09-19T11:33:08.327Z,62.09
2018-09-19T11:35:37.270Z,58.10
2018-09-19T11:38:06.455Z,58.44
2018-09-19T11:40:35.367Z,60.16
2018-09-19T11:43:04.330Z,58.21
2018-09-19T11:45:33.327Z,58.21
2018-09-19T11:48:02.343Z,56.46
2018-09-19T11:50:31.259Z,54.90
2018-09-19T11:53:00.325Z,54.12
2018-09-19T11:55:29.440Z,52.62
2018-09-19T11:57:58.482Z,50.66
2018-09-19T12:00:27.408Z,48.28
2018-09-19T12:02:56.385Z,47.17
2018-09-19T12:05:25.486Z,46.67
2018-09-19T12:07:54.627Z,45.83
2018-09-19T12:10:23.375Z,44.72
2018-09-19T12:12:52.386Z,44.38
2018-09-19T12:18:08.145Z,41.39
2018-09-19T12:20:36.986Z,41.01
2018-09-19T12:23:06.543Z,39.70
2018-09-19T12:25:35.410Z,38.35
2018-09-19T12:28:04.302Z,37.91
2018-09-19T12:30:33.418Z,38.18
2018-09-19T12:33:02.283Z,38.17
2018-09-19T12:35:31.130Z,37.31
2018-09-19T12:37:59.996Z,36.14
2018-09-19T12:40:29.030Z,34.34
2018-09-19T12:42:58.018Z,33.31
2018-09-19T12:45:26.983Z,32.80
2018-09-19T12:47:56.075Z,32.08
2018-09-19T12:50:25.023Z,31.81
2018-09-19T12:52:53.769Z,32.39
2018-09-19T12:55:22.939Z,31.75
2018-09-19T12:57:51.724Z,31.45
2018-09-19T13:00:20.871Z,30.40
2018-09-19T13:02:49.800Z,30.48
2018-09-19T13:05:18.912Z,30.04
2018-09-19T13:07:47.762Z,29.07
2018-09-19T13:10:16.677Z,29.68
2018-09-19T13:12:45.591Z,28.22
2018-09-19T13:15:15.283Z,28.28
2018-09-19T13:17:44.938Z,29.56
2018-09-19T13:20:14.595Z,28.93
2018-09-19T13:22:44.141Z,27.47
2018-09-19T13:25:13.662Z,28.04
2018-09-19T13:27:43.229Z,27.15
2018-09-19T13:30:13.008Z,27.44
2018-09-19T13:32:42.898Z,27.69
2018-09-19T13:35:14.321Z,27.98
2018-09-19T13:37:43.748Z,26.71
2018-09-19T13:40:13.487Z,26.70
2018-09-19T13:42:42.441Z,27.60
2018-09-19T13:45:11.323Z,26.71
2018-09-19T13:47:40.661Z,26.45
2018-09-19T13:50:16.315Z,26.30
2018-09-19T13:52:45.339Z,25.28
2018-09-19T13:55:14.470Z,24.59
2018-09-19T13:57:43.511Z,26.06
2018-09-19T14:00:12.575Z,25.78
2018-09-19T14:02:41.659Z,27.43
2018-09-19T14:05:10.594Z,28.31
2018-09-19T14:07:39.661Z,30.21
2018-09-19T14:10:08.855Z,32.23
2018-09-19T14:12:37.788Z,34.54
2018-09-19T14:15:07.279Z,36.26
2018-09-19T14:17:36.587Z,37.96
2018-09-19T14:20:05.767Z,37.43
2018-09-19T14:22:34.579Z,38.23
2018-09-19T14:25:03.730Z,39.02
2018-09-19T14:27:32.895Z,41.35
2018-09-19T14:30:01.956Z,42.59
2018-09-19T14:32:31.028Z,41.66
2018-09-19T14:34:59.888Z,41.83
2018-09-19T14:37:28.996Z,42.87
2018-09-19T14:39:58.012Z,43.03
2018-09-19T14:42:26.983Z,43.74
2018-09-19T14:44:55.651Z,43.89
2018-09-19T14:47:24.502Z,45.58
2018-09-19T14:49:53.350Z,45.29
2018-09-19T14:52:22.278Z,46.32
2018-09-19T14:54:51.448Z,46.71
2018-09-19T14:57:20.412Z,46.31
2018-09-19T14:59:49.718Z,46.76
2018-09-19T15:02:18.832Z,46.85
2018-09-19T15:04:48.096Z,46.20
2018-09-19T15:07:16.980Z,46.74
2018-09-19T15:09:45.898Z,46.10
2018-09-19T15:12:14.870Z,46.98
2018-09-19T15:14:43.850Z,47.28
2018-09-19T15:17:12.710Z,46.66
2018-09-19T15:19:41.718Z,47.64
2018-09-19T15:22:10.564Z,47.46
2018-09-19T15:24:39.557Z,46.99
2018-09-19T15:27:08.523Z,46.95
2018-09-19T15:29:37.540Z,47.38
2018-09-19T15:32:06.435Z,47.68
2018-09-19T15:34:35.464Z,47.14
2018-09-19T15:37:04.336Z,48.47
2018-09-19T15:39:33.187Z,48.90
2018-09-19T15:42:02.203Z,47.46
2018-09-19T15:44:31.145Z,47.44
2018-09-19T15:47:00.302Z,47.63
2018-09-19T15:49:29.485Z,47.90
2018-09-19T15:51:58.416Z,47.70
2018-09-19T15:54:27.527Z,48.11
2018-09-19T15:56:56.567Z,47.70
2018-09-19T15:59:25.413Z,47.69
2018-09-19T16:01:54.408Z,47.53
2018-09-19T16:04:23.459Z,47.37
2018-09-19T16:06:52.495Z,48.18
2018-09-19T16:09:21.399Z,47.92
2018-09-19T16:11:50.359Z,48.06
2018-09-19T16:14:19.441Z,48.12
2018-09-19T16:16:48.433Z,48.07
2018-09-19T16:19:17.508Z,48.34
2018-09-19T16:21:46.560Z,48.45
2018-09-19T16:24:16.020Z,48.77
2018-09-19T16:26:45.441Z,49.29
2018-09-19T16:29:14.336Z,49.36
2018-09-19T16:31:43.722Z,49.52
2018-09-19T16:34:12.594Z,49.85
2018-09-19T16:36:41.490Z,50.59
2018-09-19T16:39:12.075Z,50.32
2018-09-19T16:41:40.947Z,50.37
2018-09-19T16:44:10.045Z,50.96
2018-09-19T16:46:38.927Z,51.26
2018-09-19T16:49:08.507Z,50.58
2018-09-19T16:51:37.439Z,51.24
2018-09-19T16:54:06.307Z,51.38
2018-09-19T16:56:35.279Z,51.45
2018-09-19T16:59:04.138Z,51.51
2018-09-19T17:01:33.043Z,52.66
2018-09-19T17:04:01.763Z,52.30
2018-09-19T17:06:30.545Z,52.88
2018-09-19T17:08:59.458Z,52.51
2018-09-19T17:11:28.268Z,53.09
2018-09-19T17:13:57.009Z,53.22
2018-09-19T17:16:25.969Z,52.95
2018-09-19T17:18:54.716Z,52.84
2018-09-19T17:21:23.660Z,53.48
2018-09-19T17:23:52.485Z,53.82
2018-09-19T17:26:21.606Z,53.71
2018-09-19T17:28:50.490Z,54.06
2018-09-19T17:31:19.290Z,54.26
2018-09-19T17:33:48.158Z,54.91
2018-09-19T17:36:17.041Z,54.99
2018-09-19T17:38:46.167Z,55.37
2018-09-19T17:41:15.018Z,55.19
2018-09-19T17:43:44.015Z,55.79
2018-09-19T17:46:13.136Z,55.49
2018-09-19T17:48:42.090Z,55.30
2018-09-19T17:51:11.114Z,55.86
2018-09-19T17:53:39.983Z,55.12
2018-09-19T17:56:08.873Z,55.32
2018-09-19T17:58:37.907Z,55.66
2018-09-19T18:01:06.830Z,56.88
2018-09-19T18:03:36.098Z,56.40
2018-09-19T18:06:04.938Z,57.09
2018-09-19T18:08:33.882Z,57.04
2018-09-19T18:11:02.767Z,56.59
2018-09-19T18:13:31.667Z,56.53
2018-09-19T18:16:00.748Z,56.55
2018-09-19T18:18:29.531Z,56.74
2018-09-19T18:20:58.350Z,56.88
2018-09-19T18:23:27.389Z,56.91
2018-09-19T18:25:56.315Z,57.22
2018-09-19T18:28:25.316Z,57.58
2018-09-19T18:30:54.073Z,57.49
2018-09-19T18:33:23.043Z,57.73
2018-09-19T18:35:51.791Z,58.00
2018-09-19T18:38:20.506Z,58.48
2018-09-19T18:40:49.300Z,57.67
2018-09-19T18:43:18.435Z,57.90
2018-09-19T18:45:47.202Z,57.72
2018-09-19T18:48:16.077Z,58.03
2018-09-19T18:50:44.913Z,57.98
2018-09-19T18:53:13.734Z,57.93
2018-09-19T18:55:42.699Z,58.17
2018-09-19T18:58:12.129Z,58.28
2018-09-19T19:00:41.206Z,58.13
2018-09-19T19:03:10.189Z,58.57
2018-09-19T19:05:39.127Z,58.42
2018-09-19T19:08:08.124Z,58.68
2018-09-19T19:10:37.074Z,59.10
2018-09-19T19:13:05.980Z,58.94
2018-09-19T19:15:34.690Z,59.14
2018-09-19T19:18:03.727Z,59.72
2018-09-19T19:20:32.582Z,59.94
2018-09-19T19:23:01.427Z,59.70
2018-09-19T19:25:30.455Z,60.19
2018-09-19T19:27:59.264Z,60.02
2018-09-19T19:30:28.519Z,59.65
2018-09-19T19:32:57.433Z,59.67
2018-09-19T19:35:26.190Z,59.92
2018-09-19T19:37:55.074Z,60.50
2018-09-19T19:40:23.986Z,60.25
2018-09-19T19:42:53.041Z,60.42
2018-09-19T19:45:21.904Z,60.44
2018-09-19T19:47:50.915Z,60.65
2018-09-19T19:50:20.102Z,60.94
2018-09-19T19:52:49.023Z,60.96
2018-09-19T19:55:17.846Z,61.08
2018-09-19T19:57:46.681Z,61.30
2018-09-19T20:00:15.526Z,61.31
2018-09-19T20:02:44.819Z,61.35
2018-09-19T20:05:13.595Z,61.18
2018-09-19T20:07:42.375Z,61.75
2018-09-19T20:10:11.319Z,61.76
2018-09-19T20:12:40.025Z,62.07
2018-09-19T20:15:08.750Z,62.81
2018-09-19T20:17:37.719Z,62.52
2018-09-19T20:20:06.747Z,62.75
2018-09-19T20:22:35.667Z,62.59
2018-09-19T20:25:04.449Z,62.64
2018-09-19T20:27:34.518Z,62.83
2018-09-19T20:30:03.711Z,63.12
2018-09-19T20:32:32.344Z,63.39
2018-09-19T20:35:01.123Z,62.97
2018-09-19T20:37:36.403Z,63.34
2018-09-19T20:40:05.251Z,63.13
2018-09-19T20:42:34.187Z,62.94
2018-09-19T20:45:02.885Z,63.36
2018-09-19T20:47:31.586Z,63.51
2018-09-19T20:50:00.538Z,63.48
2018-09-19T20:52:29.319Z,63.61
2018-09-19T20:54:58.111Z,64.23
2018-09-19T20:57:26.874Z,64.46
2018-09-19T20:59:55.561Z,64.78
2018-09-19T21:02:24.368Z,64.58
2018-09-19T21:04:53.099Z,65.13
2018-09-19T21:07:21.950Z,64.97
2018-09-19T21:09:50.811Z,65.07
2018-09-19T21:12:19.495Z,65.18
2018-09-19T21:14:48.299Z,65.47
2018-09-19T21:17:17.182Z,65.45
2018-09-19T21:19:46.210Z,65.59
2018-09-19T21:22:15.173Z,65.41
2018-09-19T21:24:43.904Z,65.60
2018-09-19T21:27:13.078Z,66.27
2018-09-19T21:29:41.943Z,66.12
2018-09-19T21:32:10.840Z,66.40
2018-09-19T21:34:39.848Z,66.53
2018-09-19T21:37:08.730Z,66.96
2018-09-19T21:39:37.434Z,67.07
2018-09-19T21:42:06.258Z,66.75
2018-09-19T21:44:35.232Z,67.62
2018-09-19T21:47:03.914Z,67.83
2018-09-19T21:49:32.818Z,67.47
2018-09-19T21:52:01.687Z,67.83
2018-09-19T21:54:30.515Z,67.96
2018-09-19T21:56:59.507Z,67.99
2018-09-19T21:59:28.326Z,68.32
2018-09-19T22:01:57.977Z,68.41
2018-09-19T22:04:26.978Z,68.62
2018-09-19T22:06:56.031Z,68.56
2018-09-19T22:09:24.838Z,68.77
2018-09-19T22:11:53.801Z,68.74
2018-09-19T22:14:22.957Z,69.17
2018-09-19T22:16:51.705Z,69.39
2018-09-19T22:19:20.819Z,69.56
2018-09-19T22:21:49.649Z,69.73
2018-09-19T22:24:18.388Z,69.78
2018-09-19T22:26:47.148Z,69.67
2018-09-19T22:29:16.405Z,69.80
2018-09-19T22:31:45.271Z,70.50
2018-09-19T22:34:13.966Z,70.59
2018-09-19T22:36:42.973Z,71.20
2018-09-19T22:39:11.735Z,71.27
2018-09-19T22:41:40.547Z,71.39
2018-09-19T22:44:09.470Z,71.35
2018-09-19T22:46:38.221Z,72.00
2018-09-19T22:49:07.152Z,71.79
2018-09-19T22:51:35.958Z,71.87
2018-09-19T22:54:04.837Z,72.04
2018-09-19T22:56:33.667Z,71.93
2018-09-19T22:59:02.441Z,72.28
2018-09-19T23:01:31.428Z,72.24
2018-09-19T23:04:00.308Z,72.27
2018-09-19T23:06:29.210Z,72.34
2018-09-19T23:08:58.179Z,72.49
2018-09-19T23:11:26.919Z,72.51
2018-09-19T23:13:55.779Z,72.67
2018-09-19T23:16:24.498Z,72.82
2018-09-19T23:18:53.342Z,73.14
2018-09-19T23:21:22.161Z,73.08
2018-09-19T23:23:50.855Z,73.51
2018-09-19T23:26:19.778Z,73.33
2018-09-19T23:28:48.869Z,73.52
2018-09-19T23:31:17.695Z,73.68
2018-09-19T23:33:46.451Z,73.91
2018-09-19T23:36:15.378Z,73.52
2018-09-19T23:38:44.391Z,73.91
2018-09-19T23:41:13.730Z,74.03
2018-09-19T23:43:42.560Z,74.15
2018-09-19T23:46:11.670Z,74.29
2018-09-19T23:48:41.081Z,74.39
2018-09-19T23:51:09.966Z,74.42
2018-09-19T23:53:45.406Z,74.85
2018-09-19T23:56:14.424Z,75.08
2018-09-19T23:58:43.674Z,75.43
